createdAt,value
2018-08-31T00:01:43.563Z,10.49
2018-08-31T00:05:32.307Z,10.54
2018-08-31T00:07:27.315Z,10.60
2018-08-31T00:09:18.331Z,10.60
2018-08-31T00:11:20.732Z,10.63
2018-08-31T00:12:56.536Z,10.66
2018-08-31T00:14:32.596Z,10.67
2018-08-31T00:16:08.766Z,10.69
2018-08-31T00:17:45.894Z,10.71
2018-08-31T00:19:21.080Z,10.71
2018-08-31T00:20:57.051Z,10.74
2018-08-31T00:22:33.511Z,10.76
2018-08-31T00:24:20.344Z,10.74
2018-08-31T00:26:15.353Z,10.72
2018-08-31T00:28:01.449Z,10.70
2018-08-31T00:29:49.610Z,10.71
2018-08-31T00:35:48.466Z,10.77
2018-08-31T00:39:39.638Z,10.83
2018-08-31T00:51:04.209Z,10.83
2018-08-31T00:52:39.276Z,10.71
2018-08-31T00:54:14.860Z,10.71
2018-08-31T00:55:50.281Z,10.75
2018-08-31T00:57:26.343Z,10.79
2018-08-31T00:59:02.669Z,10.75
2018-08-31T01:00:38.035Z,10.77
2018-08-31T01:02:14.107Z,10.74
2018-08-31T01:03:49.317Z,10.76
2018-08-31T01:05:25.136Z,10.76
2018-08-31T01:07:00.710Z,10.82
2018-08-31T01:08:36.533Z,10.80
2018-08-31T01:10:11.792Z,10.81
2018-08-31T01:11:47.359Z,10.83
2018-08-31T01:13:22.964Z,10.83
2018-08-31T01:14:59.989Z,10.84
2018-08-31T01:16:35.552Z,10.85
2018-08-31T01:18:10.663Z,10.87
2018-08-31T01:19:46.181Z,10.87
2018-08-31T01:21:21.696Z,10.92
2018-08-31T01:22:56.652Z,10.91
2018-08-31T01:24:33.152Z,10.94
2018-08-31T01:26:08.303Z,10.99
2018-08-31T01:27:44.120Z,10.96
2018-08-31T01:29:19.634Z,10.98
2018-08-31T01:30:55.116Z,10.93
2018-08-31T01:32:30.472Z,10.86
2018-08-31T01:34:05.377Z,10.84
2018-08-31T01:35:40.457Z,10.83
2018-08-31T01:37:15.623Z,10.78
2018-08-31T01:38:53.574Z,10.74
2018-08-31T01:40:29.157Z,10.66
2018-08-31T01:42:04.189Z,10.60
2018-08-31T01:43:39.821Z,10.57
2018-08-31T01:45:17.141Z,10.51
2018-08-31T01:46:52.262Z,10.47
2018-08-31T01:48:27.713Z,10.43
2018-08-31T01:50:02.734Z,10.35
2018-08-31T01:51:38.617Z,10.30
2018-08-31T01:53:14.067Z,10.24
2018-08-31T01:54:49.393Z,10.20
2018-08-31T01:56:24.672Z,10.17
2018-08-31T01:58:00.449Z,10.17
2018-08-31T01:59:36.041Z,10.13
2018-08-31T02:01:11.507Z,10.09
2018-08-31T02:02:46.506Z,10.05
2018-08-31T02:04:21.550Z,10.02
2018-08-31T02:05:57.281Z,10.04
2018-08-31T02:07:32.293Z,9.99
2018-08-31T02:09:13.710Z,10.00
2018-08-31T02:10:49.257Z,9.95
2018-08-31T02:12:24.375Z,9.91
2018-08-31T02:14:00.072Z,9.90
2018-08-31T02:15:35.424Z,9.94
2018-08-31T02:17:10.518Z,9.91
2018-08-31T02:18:45.407Z,9.87
2018-08-31T02:20:20.743Z,9.89
2018-08-31T02:21:56.196Z,9.88
2018-08-31T02:23:31.186Z,9.83
2018-08-31T02:25:06.389Z,9.82
2018-08-31T02:26:41.443Z,9.78
2018-08-31T02:28:16.622Z,9.79
2018-08-31T02:29:52.240Z,9.81
2018-08-31T02:31:27.306Z,9.73
2018-08-31T02:33:02.239Z,9.68
2018-08-31T02:34:38.480Z,9.65
2018-08-31T02:36:13.713Z,9.63
2018-08-31T02:37:51.052Z,9.57
2018-08-31T02:39:27.085Z,9.53
2018-08-31T02:41:03.220Z,9.50
2018-08-31T02:42:39.998Z,9.47
2018-08-31T02:44:15.854Z,9.47
2018-08-31T02:45:51.597Z,9.45
2018-08-31T02:47:26.854Z,9.44
2018-08-31T02:49:01.871Z,9.47
2018-08-31T02:50:37.114Z,9.47
2018-08-31T02:52:12.440Z,9.49
2018-08-31T02:53:47.601Z,9.49
2018-08-31T02:55:22.796Z,9.53
2018-08-31T02:56:57.681Z,9.56
2018-08-31T02:58:32.719Z,9.56
2018-08-31T03:00:07.939Z,9.62
2018-08-31T03:01:43.614Z,9.71
2018-08-31T03:03:19.887Z,9.66
2018-08-31T03:04:55.084Z,9.67
2018-08-31T03:06:30.757Z,9.65
2018-08-31T03:08:06.255Z,9.65
2018-08-31T03:09:41.261Z,9.65
2018-08-31T03:11:17.317Z,9.63
2018-08-31T03:12:52.497Z,9.62
2018-08-31T03:14:27.560Z,9.63
2018-08-31T03:16:04.401Z,9.63
2018-08-31T03:17:41.661Z,9.64
2018-08-31T03:19:16.529Z,9.64
2018-08-31T03:20:51.709Z,9.62
2018-08-31T03:22:26.640Z,9.62
2018-08-31T03:24:04.270Z,9.64
2018-08-31T03:25:39.684Z,9.65
2018-08-31T03:27:14.849Z,9.64
2018-08-31T03:28:51.413Z,9.66
2018-08-31T03:30:26.578Z,9.66
2018-08-31T03:32:01.840Z,9.68
2018-08-31T03:33:37.071Z,9.74
2018-08-31T03:35:12.276Z,9.75
2018-08-31T03:36:47.291Z,9.77
2018-08-31T03:38:22.771Z,9.76
2018-08-31T03:39:58.012Z,9.76
2018-08-31T03:41:32.919Z,9.79
2018-08-31T03:43:07.964Z,9.81
2018-08-31T03:44:42.910Z,9.81
2018-08-31T03:46:18.116Z,9.83
2018-08-31T03:47:53.488Z,9.86
2018-08-31T03:49:29.787Z,9.88
2018-08-31T03:51:09.251Z,9.88
2018-08-31T03:52:44.271Z,9.90
2018-08-31T03:54:19.148Z,9.90
2018-08-31T03:55:55.239Z,9.93
2018-08-31T03:57:31.000Z,9.97
2018-08-31T03:59:05.861Z,9.97
2018-08-31T04:00:49.624Z,9.99
2018-08-31T04:02:24.900Z,10.00
2018-08-31T04:04:04.374Z,10.03
2018-08-31T04:05:39.873Z,10.04
2018-08-31T04:07:19.301Z,10.07
2018-08-31T04:08:56.975Z,10.11
2018-08-31T04:10:36.134Z,10.14
2018-08-31T04:12:14.555Z,10.15
2018-08-31T04:13:52.910Z,10.17
2018-08-31T04:15:37.694Z,10.16
2018-08-31T04:17:13.395Z,10.14
2018-08-31T04:18:49.183Z,10.16
2018-08-31T04:20:24.402Z,10.15
2018-08-31T04:22:02.433Z,10.14
2018-08-31T04:23:38.795Z,10.15
2018-08-31T04:25:13.823Z,10.14
2018-08-31T04:26:48.759Z,10.14
2018-08-31T04:28:23.623Z,10.14
2018-08-31T04:29:58.528Z,10.15
2018-08-31T04:31:33.737Z,10.17
2018-08-31T04:33:10.279Z,10.25
2018-08-31T04:34:45.560Z,10.16
2018-08-31T04:36:20.743Z,10.15
2018-08-31T04:37:55.742Z,10.09
2018-08-31T04:39:31.227Z,10.09
2018-08-31T04:41:06.749Z,10.10
2018-08-31T04:42:41.739Z,10.07
2018-08-31T04:44:16.793Z,10.06
2018-08-31T04:45:51.709Z,10.02
2018-08-31T04:47:27.054Z,10.02
2018-08-31T04:49:02.394Z,10.00
2018-08-31T04:50:37.420Z,9.94
2018-08-31T04:52:13.306Z,9.96
2018-08-31T04:53:48.247Z,9.92
2018-08-31T04:55:23.444Z,9.93
2018-08-31T04:56:58.254Z,9.93
2018-08-31T04:58:34.109Z,9.92
2018-08-31T05:00:09.981Z,9.99
2018-08-31T05:01:45.154Z,10.00
2018-08-31T05:03:20.601Z,9.97
2018-08-31T05:04:56.651Z,9.97
2018-08-31T05:06:31.695Z,10.02
2018-08-31T05:08:06.759Z,9.99
2018-08-31T05:09:44.503Z,10.03
2018-08-31T05:11:21.945Z,10.05
2018-08-31T05:12:56.821Z,10.04
2018-08-31T05:14:44.869Z,10.01
2018-08-31T05:16:29.969Z,10.01
2018-08-31T05:18:23.968Z,9.99
2018-08-31T05:22:28.546Z,10.02
2018-08-31T05:24:17.690Z,10.04
2018-08-31T05:25:54.873Z,10.05
2018-08-31T05:27:31.356Z,10.07
2018-08-31T05:29:06.621Z,10.09
2018-08-31T05:30:41.938Z,10.09
2018-08-31T05:32:17.093Z,10.13
2018-08-31T05:33:54.640Z,10.14
2018-08-31T05:35:31.549Z,10.15
2018-08-31T05:37:06.681Z,10.26
2018-08-31T05:38:43.510Z,10.26
2018-08-31T05:40:23.744Z,10.24
2018-08-31T05:41:58.844Z,10.30
2018-08-31T05:43:34.624Z,10.32
2018-08-31T05:45:10.122Z,10.33
2018-08-31T05:46:47.845Z,10.41
2018-08-31T05:48:23.197Z,10.41
2018-08-31T05:49:59.516Z,10.42
2018-08-31T05:51:34.607Z,10.45
2018-08-31T05:53:09.627Z,10.49
2018-08-31T05:54:45.070Z,10.49
2018-08-31T05:56:20.014Z,10.49
2018-08-31T05:57:55.611Z,10.55
2018-08-31T05:59:30.622Z,10.60
2018-08-31T06:01:10.662Z,10.59
2018-08-31T06:02:45.830Z,10.59
2018-08-31T06:04:22.215Z,10.64
2018-08-31T06:05:57.297Z,10.65
2018-08-31T06:07:32.524Z,10.72
2018-08-31T06:09:09.428Z,10.78
2018-08-31T06:10:44.475Z,10.83
2018-08-31T06:12:19.466Z,10.84
2018-08-31T06:13:54.454Z,10.90
2018-08-31T06:15:30.322Z,10.97
2018-08-31T06:17:05.848Z,11.03
2018-08-31T06:18:42.029Z,11.02
2018-08-31T06:20:17.726Z,11.10
2018-08-31T06:21:53.955Z,11.16
2018-08-31T06:23:28.964Z,11.22
2018-08-31T06:25:04.594Z,11.30
2018-08-31T06:26:40.788Z,11.32
2018-08-31T06:28:16.006Z,11.39
2018-08-31T06:29:50.979Z,11.50
2018-08-31T06:31:26.814Z,11.56
2018-08-31T06:33:02.626Z,11.65
2018-08-31T06:34:38.511Z,11.75
2018-08-31T06:36:14.083Z,11.77
2018-08-31T06:37:49.118Z,11.89
2018-08-31T06:39:24.073Z,11.99
2018-08-31T06:40:59.715Z,11.98
2018-08-31T06:42:34.702Z,12.03
2018-08-31T06:44:10.428Z,11.98
2018-08-31T06:45:46.465Z,12.00
2018-08-31T06:47:21.711Z,11.93
2018-08-31T06:48:56.613Z,12.00
2018-08-31T06:50:31.565Z,12.06
2018-08-31T06:52:07.923Z,12.08
2018-08-31T06:53:43.551Z,12.20
2018-08-31T06:55:18.716Z,12.34
2018-08-31T06:56:53.852Z,12.37
2018-08-31T06:58:30.226Z,12.51
2018-08-31T07:00:09.668Z,12.45
2018-08-31T07:01:45.375Z,12.64
2018-08-31T07:03:21.251Z,12.67
2018-08-31T07:04:56.195Z,12.65
2018-08-31T07:06:31.462Z,12.68
2018-08-31T07:08:06.597Z,12.86
2018-08-31T07:09:41.562Z,12.84
2018-08-31T07:11:17.867Z,13.03
2018-08-31T07:12:53.709Z,13.08
2018-08-31T07:14:30.466Z,13.12
2018-08-31T07:16:05.618Z,13.00
2018-08-31T07:17:40.544Z,13.03
2018-08-31T07:19:17.943Z,12.87
2018-08-31T07:20:53.457Z,12.82
2018-08-31T07:22:28.708Z,12.89
2018-08-31T07:24:03.979Z,13.10
2018-08-31T07:25:43.755Z,13.21
2018-08-31T07:27:18.682Z,13.28
2018-08-31T07:28:55.591Z,13.15
2018-08-31T07:30:31.105Z,13.13
2018-08-31T07:32:08.917Z,13.07
2018-08-31T07:33:43.988Z,13.07
2018-08-31T07:35:22.122Z,13.15
2018-08-31T07:36:57.333Z,13.28
2018-08-31T07:38:32.673Z,13.42
2018-08-31T07:40:07.910Z,13.35
2018-08-31T07:41:43.120Z,13.52
2018-08-31T07:43:18.071Z,13.59
2018-08-31T07:44:54.584Z,13.46
2018-08-31T07:46:30.051Z,13.57
2018-08-31T07:48:06.274Z,13.73
2018-08-31T07:49:41.612Z,13.91
2018-08-31T07:51:18.095Z,13.96
2018-08-31T07:52:53.835Z,14.08
2018-08-31T07:54:30.526Z,14.14
2018-08-31T07:56:13.505Z,14.25
2018-08-31T07:57:51.193Z,14.35
2018-08-31T07:59:27.640Z,14.55
2018-08-31T08:01:07.544Z,14.71
2018-08-31T08:02:42.576Z,14.87
2018-08-31T08:04:19.573Z,14.97
2018-08-31T08:05:55.881Z,14.77
2018-08-31T08:07:34.618Z,14.85
2018-08-31T08:09:10.985Z,14.92
2018-08-31T08:10:48.084Z,15.24
2018-08-31T08:12:25.007Z,15.30
2018-08-31T08:14:02.604Z,15.49
2018-08-31T08:15:44.329Z,15.20
2018-08-31T08:17:28.529Z,15.48
2018-08-31T08:19:09.119Z,15.60
2018-08-31T08:20:46.751Z,15.76
2018-08-31T08:22:23.889Z,16.02
2018-08-31T08:24:03.743Z,16.26
2018-08-31T08:25:39.084Z,16.09
2018-08-31T08:27:14.271Z,16.22
2018-08-31T08:28:50.365Z,16.21
2018-08-31T08:30:30.445Z,15.91
2018-08-31T08:32:06.606Z,15.75
2018-08-31T08:33:42.717Z,15.88
2018-08-31T08:35:19.289Z,16.07
2018-08-31T08:36:55.788Z,16.32
2018-08-31T08:38:30.951Z,16.27
2018-08-31T08:40:06.755Z,16.52
2018-08-31T08:41:42.604Z,16.71
2018-08-31T08:43:21.773Z,16.81
2018-08-31T08:44:59.180Z,16.83
2018-08-31T08:46:34.389Z,17.00
2018-08-31T08:48:13.344Z,17.12
2018-08-31T08:49:49.282Z,17.16
2018-08-31T08:51:25.935Z,16.97
2018-08-31T08:53:02.022Z,17.02
2018-08-31T08:54:37.031Z,16.62
2018-08-31T08:56:12.568Z,16.60
2018-08-31T08:57:48.109Z,16.18
2018-08-31T08:59:23.333Z,15.68
2018-08-31T09:01:00.660Z,15.72
2018-08-31T09:02:36.531Z,15.52
2018-08-31T09:04:11.617Z,15.13
2018-08-31T09:05:47.319Z,15.37
2018-08-31T09:07:22.187Z,15.58
2018-08-31T09:08:57.484Z,15.59
2018-08-31T09:10:32.694Z,15.55
2018-08-31T09:12:12.617Z,15.70
2018-08-31T09:13:47.689Z,15.62
2018-08-31T09:15:23.770Z,15.30
2018-08-31T09:16:58.920Z,15.21
2018-08-31T09:18:35.363Z,15.08
2018-08-31T09:20:11.981Z,15.16
2018-08-31T09:21:48.999Z,15.05
2018-08-31T09:23:24.888Z,15.18
2018-08-31T09:24:59.947Z,15.32
2018-08-31T09:26:35.796Z,15.26
2018-08-31T09:28:14.667Z,15.02
2018-08-31T09:29:52.900Z,14.67
2018-08-31T09:31:28.510Z,14.96
2018-08-31T09:33:05.985Z,14.88
2018-08-31T09:34:50.069Z,14.98
2018-08-31T09:36:25.312Z,14.77
2018-08-31T09:38:04.316Z,14.94
2018-08-31T09:39:40.361Z,14.99
2018-08-31T09:41:18.893Z,15.05
2018-08-31T09:43:00.867Z,15.03
2018-08-31T09:44:37.405Z,15.02
2018-08-31T09:46:15.155Z,15.04
2018-08-31T09:47:59.834Z,15.28
2018-08-31T09:49:34.919Z,15.19
2018-08-31T09:51:10.631Z,15.34
2018-08-31T09:52:47.218Z,15.56
2018-08-31T09:54:26.124Z,15.77
2018-08-31T09:56:12.567Z,15.86
2018-08-31T09:57:48.578Z,16.15
2018-08-31T09:59:28.098Z,15.93
2018-08-31T10:01:14.787Z,16.09
2018-08-31T10:02:58.187Z,16.32
2018-08-31T10:04:33.771Z,16.16
2018-08-31T10:06:11.730Z,15.78
2018-08-31T10:07:47.275Z,15.97
2018-08-31T10:12:10.935Z,15.88
2018-08-31T10:13:46.722Z,16.12
2018-08-31T10:15:26.619Z,16.00
2018-08-31T10:17:02.064Z,15.89
2018-08-31T10:18:39.774Z,15.93
2018-08-31T10:20:15.868Z,15.90
2018-08-31T10:21:52.713Z,16.01
2018-08-31T10:23:29.600Z,16.15
2018-08-31T10:25:06.512Z,16.16
2018-08-31T10:26:48.531Z,15.96
2018-08-31T10:28:24.284Z,16.09
2018-08-31T10:30:00.358Z,16.28
2018-08-31T10:31:39.560Z,16.49
2018-08-31T10:33:19.901Z,16.27
2018-08-31T10:34:55.701Z,16.23
2018-08-31T10:36:31.969Z,16.21
2018-08-31T10:38:09.623Z,15.90
2018-08-31T10:39:45.879Z,15.89
2018-08-31T10:41:23.604Z,15.76
2018-08-31T10:42:59.505Z,15.82
2018-08-31T10:44:35.291Z,15.98
2018-08-31T10:46:10.398Z,16.25
2018-08-31T10:47:50.180Z,16.53
2018-08-31T10:49:26.362Z,16.65
2018-08-31T10:51:02.732Z,16.70
2018-08-31T10:52:37.825Z,16.81
2018-08-31T10:54:14.486Z,16.84
2018-08-31T10:55:54.632Z,17.12
2018-08-31T10:57:31.178Z,17.13
2018-08-31T10:59:09.405Z,17.19
2018-08-31T11:00:48.631Z,17.39
2018-08-31T11:02:25.902Z,17.38
2018-08-31T11:04:01.780Z,17.26
2018-08-31T11:05:38.835Z,17.02
2018-08-31T11:07:15.593Z,17.06
2018-08-31T11:08:53.507Z,17.11
2018-08-31T11:10:39.551Z,17.37
2018-08-31T11:12:17.891Z,17.22
2018-08-31T11:13:54.867Z,17.08
2018-08-31T11:15:31.800Z,17.03
2018-08-31T11:17:09.726Z,17.11
2018-08-31T11:18:49.279Z,17.10
2018-08-31T11:20:26.781Z,17.39
2018-08-31T11:22:04.628Z,17.40
2018-08-31T11:23:58.671Z,17.38
2018-08-31T11:25:35.782Z,17.58
2018-08-31T11:27:10.706Z,17.84
2018-08-31T11:28:45.734Z,17.48
2018-08-31T11:30:21.830Z,17.58
2018-08-31T11:32:06.526Z,17.92
2018-08-31T11:33:46.172Z,17.76
2018-08-31T11:35:21.548Z,17.72
2018-08-31T11:36:57.497Z,17.72
2018-08-31T11:38:32.524Z,17.98
2018-08-31T11:40:08.242Z,17.88
2018-08-31T11:41:43.197Z,17.70
2018-08-31T11:43:19.020Z,17.97
2018-08-31T11:44:55.601Z,17.87
2018-08-31T11:46:31.302Z,18.24
2018-08-31T11:48:07.399Z,18.48
2018-08-31T11:49:44.326Z,18.48
2018-08-31T11:51:28.135Z,18.48
2018-08-31T11:53:15.828Z,18.46
2018-08-31T11:54:54.441Z,18.28
2018-08-31T11:56:33.704Z,18.43
2018-08-31T11:58:14.874Z,18.32
2018-08-31T11:59:50.912Z,18.62
2018-08-31T12:01:28.371Z,18.64
2018-08-31T12:03:08.013Z,18.75
2018-08-31T12:04:45.884Z,18.89
2018-08-31T12:06:25.484Z,18.95
2018-08-31T12:08:04.474Z,19.06
2018-08-31T12:09:42.544Z,18.56
2018-08-31T12:11:24.610Z,18.54
2018-08-31T12:13:11.014Z,18.54
2018-08-31T12:14:48.524Z,18.66
2018-08-31T12:16:26.797Z,18.57
2018-08-31T12:18:11.094Z,18.75
2018-08-31T12:19:48.488Z,18.74
2018-08-31T12:21:24.997Z,18.68
2018-08-31T12:23:00.172Z,18.67
2018-08-31T12:24:35.646Z,18.92
2018-08-31T12:26:11.991Z,19.23
2018-08-31T12:27:49.013Z,19.14
2018-08-31T12:29:24.553Z,19.28
2018-08-31T12:31:04.081Z,19.29
2018-08-31T12:32:41.147Z,19.50
2018-08-31T12:34:20.412Z,19.48
2018-08-31T12:36:00.371Z,19.44
2018-08-31T12:37:40.031Z,19.28
2018-08-31T12:39:16.898Z,19.37
2018-08-31T12:40:53.213Z,19.73
2018-08-31T12:42:30.339Z,19.71
2018-08-31T12:44:11.570Z,19.62
2018-08-31T12:45:57.036Z,19.46
2018-08-31T12:47:35.169Z,19.34
2018-08-31T12:49:14.253Z,19.22
2018-08-31T12:50:50.618Z,19.01
2018-08-31T12:52:30.162Z,19.11
2018-08-31T12:54:07.228Z,19.03
2018-08-31T12:55:44.748Z,19.17
2018-08-31T12:57:22.345Z,19.85
2018-08-31T12:59:01.791Z,20.11
2018-08-31T13:00:37.257Z,20.01
2018-08-31T13:02:12.283Z,20.16
2018-08-31T13:03:49.934Z,20.14
2018-08-31T13:05:25.543Z,19.58
2018-08-31T13:07:04.168Z,19.65
2018-08-31T13:08:39.487Z,18.63
2018-08-31T13:10:17.710Z,18.23
2018-08-31T13:11:53.007Z,18.09
2018-08-31T13:13:29.230Z,17.66
2018-08-31T13:15:06.458Z,17.48
2018-08-31T13:16:42.402Z,17.82
2018-08-31T13:18:19.662Z,18.35
2018-08-31T13:19:54.917Z,18.84
2018-08-31T13:21:32.454Z,18.89
2018-08-31T13:23:11.418Z,18.42
2018-08-31T13:24:49.135Z,18.35
2018-08-31T13:26:27.537Z,18.80
2018-08-31T13:28:06.839Z,18.94
2018-08-31T13:29:42.693Z,18.92
2018-08-31T13:31:25.097Z,18.99
2018-08-31T13:33:01.953Z,18.66
2018-08-31T13:34:39.588Z,18.59
2018-08-31T13:36:19.470Z,18.29
2018-08-31T13:37:58.683Z,17.80
2018-08-31T13:39:36.955Z,17.62
2018-08-31T13:43:01.089Z,17.63
2018-08-31T13:44:40.924Z,17.40
2018-08-31T13:46:19.678Z,17.46
2018-08-31T13:48:02.001Z,17.11
2018-08-31T13:49:42.512Z,17.16
2018-08-31T13:51:21.978Z,17.38
2018-08-31T13:53:00.885Z,17.15
2018-08-31T13:54:39.754Z,17.16
2018-08-31T13:56:20.875Z,17.32
2018-08-31T13:57:56.840Z,17.67
2018-08-31T13:59:32.539Z,17.78
2018-08-31T14:01:14.924Z,17.88
2018-08-31T14:03:01.289Z,18.00
2018-08-31T14:04:42.624Z,18.36
2018-08-31T14:06:20.769Z,18.18
2018-08-31T14:07:56.782Z,17.85
2018-08-31T14:09:35.744Z,17.86
2018-08-31T14:11:24.438Z,17.96
2018-08-31T14:13:01.933Z,17.97
2018-08-31T14:14:37.810Z,18.23
2018-08-31T14:16:13.269Z,18.11
2018-08-31T14:17:50.249Z,18.04
2018-08-31T14:19:33.907Z,18.19
2018-08-31T14:21:10.979Z,17.87
2018-08-31T14:22:49.504Z,17.69
2018-08-31T14:24:27.983Z,17.61
2018-08-31T14:26:06.924Z,17.57
2018-08-31T14:27:42.068Z,17.36
2018-08-31T14:29:17.879Z,17.08
2018-08-31T14:31:06.509Z,16.86
2018-08-31T14:32:41.876Z,16.81
2018-08-31T14:34:18.085Z,16.83
2018-08-31T14:36:00.634Z,16.87
2018-08-31T14:37:40.004Z,16.70
2018-08-31T14:39:28.772Z,16.78
2018-08-31T14:41:19.770Z,16.83
2018-08-31T14:43:04.334Z,16.84
2018-08-31T14:45:00.600Z,16.73
2018-08-31T14:46:37.445Z,16.70
2018-08-31T14:48:18.875Z,16.95
2018-08-31T14:49:56.676Z,17.06
2018-08-31T14:51:34.357Z,16.95
2018-08-31T14:53:12.570Z,16.67
2018-08-31T14:54:48.942Z,16.63
2018-08-31T14:56:26.858Z,16.53
2018-08-31T14:58:02.827Z,16.53
2018-08-31T14:59:38.398Z,16.29
2018-08-31T15:01:15.848Z,16.43
2018-08-31T15:02:51.313Z,16.26
2018-08-31T15:04:29.139Z,16.26
2018-08-31T15:06:04.231Z,16.31
2018-08-31T15:08:03.169Z,16.28
2018-08-31T15:09:56.452Z,16.26
2018-08-31T15:11:44.199Z,16.32
2018-08-31T15:13:26.699Z,16.36
2018-08-31T15:15:09.361Z,16.44
2018-08-31T15:16:49.834Z,16.56
2018-08-31T15:18:51.546Z,16.46
2018-08-31T15:20:31.020Z,16.71
2018-08-31T15:22:15.474Z,16.70
2018-08-31T15:23:55.432Z,16.73
2018-08-31T15:25:32.623Z,16.86
2018-08-31T15:27:12.549Z,17.08
2018-08-31T15:28:52.290Z,17.14
2018-08-31T15:30:28.930Z,16.93
2018-08-31T15:32:06.613Z,16.95
2018-08-31T15:33:42.422Z,16.83
2018-08-31T15:35:18.444Z,16.81
2018-08-31T15:36:53.849Z,16.80
2018-08-31T15:38:31.365Z,16.84
2018-08-31T15:41:59.942Z,16.65
2018-08-31T15:43:41.792Z,16.55
2018-08-31T15:45:19.871Z,16.47
2018-08-31T15:46:56.290Z,16.54
2018-08-31T15:48:32.538Z,16.71
2018-08-31T15:50:11.602Z,16.74
2018-08-31T15:51:49.223Z,16.70
2018-08-31T15:53:27.233Z,16.49
2018-08-31T15:55:05.735Z,16.40
2018-08-31T15:56:42.312Z,16.43
2018-08-31T15:58:21.507Z,16.47
2018-08-31T16:00:26.638Z,16.52
2018-08-31T16:02:15.343Z,16.39
2018-08-31T16:04:02.128Z,16.31
2018-08-31T16:05:41.653Z,16.34
2018-08-31T16:07:20.683Z,16.21
2018-08-31T16:09:00.456Z,16.34
2018-08-31T16:10:37.018Z,16.24
2018-08-31T16:12:16.745Z,16.18
2018-08-31T16:13:54.789Z,16.24
2018-08-31T16:15:33.817Z,16.16
2018-08-31T16:17:15.206Z,16.17
2018-08-31T16:18:54.254Z,16.11
2018-08-31T16:20:33.280Z,16.17
2018-08-31T16:22:08.417Z,16.16
2018-08-31T16:23:44.963Z,16.06
2018-08-31T16:25:21.303Z,16.04
2018-08-31T16:26:56.710Z,16.06
2018-08-31T16:28:35.139Z,16.04
2018-08-31T16:30:14.700Z,16.04
2018-08-31T16:31:51.338Z,16.00
2018-08-31T16:33:27.177Z,16.06
2018-08-31T16:35:03.501Z,16.00
2018-08-31T16:36:40.584Z,15.91
2018-08-31T16:38:20.591Z,15.92
2018-08-31T16:39:57.309Z,15.82
2018-08-31T16:41:33.129Z,15.73
2018-08-31T16:43:12.251Z,15.74
2018-08-31T16:44:48.352Z,15.71
2018-08-31T16:46:25.713Z,15.76
2018-08-31T16:48:03.020Z,15.72
2018-08-31T16:49:42.662Z,15.78
2018-08-31T16:51:21.029Z,15.78
2018-08-31T16:52:59.084Z,15.71
2018-08-31T16:54:38.147Z,15.65
2018-08-31T16:56:13.468Z,15.56
2018-08-31T16:57:50.701Z,15.51
2018-08-31T16:59:26.967Z,15.52
2018-08-31T17:01:03.597Z,15.41
2018-08-31T17:04:21.864Z,15.26
2018-08-31T17:05:58.584Z,15.23
2018-08-31T17:07:37.369Z,15.22
2018-08-31T17:09:14.591Z,15.23
2018-08-31T17:10:50.982Z,15.16
2018-08-31T17:12:27.953Z,15.18
2018-08-31T17:14:03.814Z,15.13
2018-08-31T17:15:41.660Z,15.04
2018-08-31T17:17:21.090Z,15.00
2018-08-31T17:18:57.243Z,15.01
2018-08-31T17:20:32.756Z,14.96
2018-08-31T17:22:10.976Z,14.96
2018-08-31T17:23:47.240Z,14.88
2018-08-31T17:25:25.725Z,14.83
2018-08-31T17:27:06.644Z,14.74
2018-08-31T17:28:48.282Z,14.71
2018-08-31T17:30:25.447Z,14.65
2018-08-31T17:32:06.799Z,14.63
2018-08-31T17:33:47.922Z,14.64
2018-08-31T17:35:29.699Z,14.62
2018-08-31T17:37:10.037Z,14.60
2018-08-31T17:38:46.203Z,14.54
2018-08-31T17:40:21.519Z,14.58
2018-08-31T17:44:05.826Z,14.38
2018-08-31T17:45:44.024Z,14.30
2018-08-31T17:47:22.006Z,14.28
2018-08-31T17:49:02.440Z,14.23
2018-08-31T17:50:42.673Z,14.20
2018-08-31T17:52:23.457Z,14.14
2018-08-31T17:54:04.540Z,14.07
2018-08-31T17:55:52.828Z,14.01
2018-08-31T17:57:33.779Z,13.93
2018-08-31T17:59:21.261Z,13.89
2018-08-31T18:00:59.294Z,13.85
2018-08-31T18:02:50.611Z,13.77
2018-08-31T18:04:34.558Z,13.66
2018-08-31T18:06:17.559Z,13.62
2018-08-31T18:08:00.260Z,13.55
2018-08-31T18:09:39.367Z,13.55
2018-08-31T18:11:21.544Z,13.45
2018-08-31T18:12:59.412Z,13.43
2018-08-31T18:14:38.225Z,13.45
2018-08-31T18:16:18.732Z,13.38
2018-08-31T18:17:59.004Z,13.30
2018-08-31T18:19:36.281Z,13.21
2018-08-31T18:21:18.228Z,13.15
2018-08-31T18:23:09.212Z,13.11
2018-08-31T18:24:46.115Z,13.05
2018-08-31T18:26:23.285Z,12.91
2018-08-31T18:28:00.456Z,12.82
2018-08-31T18:29:35.622Z,12.85
2018-08-31T18:31:10.998Z,12.73
2018-08-31T18:32:48.628Z,12.60
2018-08-31T18:34:24.731Z,12.55
2018-08-31T18:35:59.817Z,12.52
2018-08-31T18:37:45.461Z,12.44
2018-08-31T18:39:33.636Z,12.39
2018-08-31T18:41:17.383Z,12.31
2018-08-31T18:42:52.880Z,12.16
2018-08-31T18:44:28.046Z,12.14
2018-08-31T18:46:05.607Z,12.04
2018-08-31T18:47:41.358Z,12.05
2018-08-31T18:49:20.555Z,11.99
2018-08-31T18:50:55.649Z,11.92
2018-08-31T18:52:35.373Z,11.86
2018-08-31T18:54:13.026Z,11.74
2018-08-31T18:55:52.475Z,11.73
2018-08-31T18:57:34.119Z,11.65
2018-08-31T18:59:15.604Z,11.66
2018-08-31T19:00:59.289Z,11.62
2018-08-31T19:02:34.435Z,11.56
2018-08-31T19:04:11.511Z,11.46
2018-08-31T19:05:47.921Z,11.38
2018-08-31T19:07:23.452Z,11.31
2018-08-31T19:09:02.255Z,11.37
2018-08-31T19:10:38.699Z,11.31
2018-08-31T19:12:16.407Z,11.34
2018-08-31T19:13:53.569Z,11.29
2018-08-31T19:15:32.077Z,11.23
2018-08-31T19:17:13.708Z,11.13
2018-08-31T19:18:49.038Z,11.07
2018-08-31T19:20:26.155Z,11.19
2018-08-31T19:22:03.558Z,11.08
2018-08-31T19:23:39.381Z,10.98
2018-08-31T19:25:14.555Z,10.96
2018-08-31T19:26:50.453Z,10.90
2018-08-31T19:28:25.538Z,10.91
2018-08-31T19:30:03.120Z,10.81
2018-08-31T19:31:39.152Z,10.74
2018-08-31T19:33:15.000Z,10.69
2018-08-31T19:34:52.391Z,10.64
2018-08-31T19:36:28.234Z,10.57
2018-08-31T19:38:04.925Z,10.50
2018-08-31T19:39:42.016Z,10.50
2018-08-31T19:41:20.134Z,10.36
2018-08-31T19:42:55.732Z,10.34
2018-08-31T19:44:31.594Z,10.28
2018-08-31T19:46:08.067Z,10.19
2018-08-31T19:47:44.124Z,10.23
2018-08-31T19:49:20.233Z,10.20
2018-08-31T19:52:53.540Z,10.14
2018-08-31T20:00:43.251Z,10.15
2018-08-31T20:02:22.438Z,10.09
2018-08-31T20:04:01.424Z,10.09
2018-08-31T20:05:42.047Z,10.06
2018-08-31T20:07:25.435Z,10.13
2018-08-31T20:09:01.662Z,10.29
2018-08-31T20:10:41.696Z,10.45
2018-08-31T20:12:22.096Z,10.58
2018-08-31T20:14:04.752Z,10.67
2018-08-31T20:15:43.166Z,10.76
2018-08-31T20:17:20.698Z,10.89
2018-08-31T20:18:58.345Z,10.92
2018-08-31T20:20:37.731Z,11.02
2018-08-31T20:22:16.433Z,11.07
2018-08-31T20:23:56.576Z,11.11
2018-08-31T20:25:33.110Z,11.19
2018-08-31T20:27:09.104Z,11.27
2018-08-31T20:28:49.570Z,11.30
2018-08-31T20:30:28.170Z,11.29
2018-08-31T20:32:04.751Z,11.29
2018-08-31T20:33:44.815Z,11.32
2018-08-31T20:35:21.027Z,11.23
2018-08-31T20:36:57.092Z,11.20
2018-08-31T20:38:36.792Z,11.21
2018-08-31T20:40:15.742Z,11.24
2018-08-31T20:41:56.756Z,11.17
2018-08-31T20:43:32.703Z,11.19
2018-08-31T20:45:12.551Z,11.16
2018-08-31T20:46:53.133Z,11.09
2018-08-31T20:48:30.065Z,11.02
2018-08-31T20:50:06.272Z,11.00
2018-08-31T20:51:42.768Z,10.90
2018-08-31T20:53:17.998Z,10.80
2018-08-31T20:54:56.409Z,10.75
2018-08-31T20:56:33.627Z,10.69
2018-08-31T20:58:12.814Z,10.67
2018-08-31T20:59:50.494Z,10.59
2018-08-31T21:01:26.303Z,10.65
2018-08-31T21:03:01.739Z,10.58
2018-08-31T21:04:38.202Z,10.63
2018-08-31T21:06:17.585Z,10.55
2018-08-31T21:07:54.010Z,10.52
2018-08-31T21:09:33.327Z,10.37
2018-08-31T21:11:15.539Z,10.32
2018-08-31T21:12:53.293Z,10.33
2018-08-31T21:14:32.418Z,10.24
2018-08-31T21:16:10.041Z,10.15
2018-08-31T21:17:48.576Z,10.04
2018-08-31T21:19:27.776Z,9.95
2018-08-31T21:21:06.482Z,9.86
2018-08-31T21:22:44.598Z,9.77
2018-08-31T21:24:21.730Z,9.68
2018-08-31T21:25:59.443Z,9.61
2018-08-31T21:27:36.561Z,9.52
2018-08-31T21:29:12.378Z,9.45
2018-08-31T21:30:48.105Z,9.37
2018-08-31T21:32:23.638Z,9.37
2018-08-31T21:33:59.380Z,9.40
2018-08-31T21:35:37.281Z,9.32
2018-08-31T21:37:14.616Z,9.24
2018-08-31T21:38:51.775Z,9.21
2018-08-31T21:40:28.596Z,9.20
2018-08-31T21:42:11.438Z,9.08
2018-08-31T21:43:50.602Z,8.96